sensor_id;sensor_type;location;lat;lon;timestamp;P1;durP1;ratioP1;P2;durP2;ratioP2
11797;SDS011;5956;51.428;6.682;2024-01-30T00:00:47;11.80;;;10.10;;
11797;SDS011;5956;51.428;6.682;2024-01-30T00:03:14;10.67;;;9.60;;
11797;SDS011;5956;51.428;6.682;2024-01-30T00:05:40;14.30;;;9.70;;
11797;SDS011;5956;51.428;6.682;2024-01-30T00:08:08;10.40;;;9.17;;
11797;SDS011;5956;51.428;6.682;2024-01-30T00:10:35;10.83;;;9.73;;
11797;SDS011;5956;51.428;6.682;2024-01-30T00:13:01;10.37;;;9.33;;
11797;SDS011;5956;51.428;6.682;2024-01-30T00:15:27;10.80;;;9.70;;
11797;SDS011;5956;51.428;6.682;2024-01-30T00:17:54;11.03;;;9.70;;
11797;SDS011;5956;51.428;6.682;2024-01-30T00:20:20;10.67;;;9.27;;
11797;SDS011;5956;51.428;6.682;2024-01-30T00:22:48;11.10;;;9.60;;
11797;SDS011;5956;51.428;6.682;2024-01-30T00:25:16;10.90;;;9.60;;
11797;SDS011;5956;51.428;6.682;2024-01-30T00:27:42;11.30;;;10.07;;
11797;SDS011;5956;51.428;6.682;2024-01-30T00:30:09;11.83;;;10.60;;
11797;SDS011;5956;51.428;6.682;2024-01-30T00:32:36;12.13;;;10.43;;
11797;SDS011;5956;51.428;6.682;2024-01-30T00:35:02;15.37;;;11.27;;
11797;SDS011;5956;51.428;6.682;2024-01-30T00:37:29;15.23;;;10.60;;
11797;SDS011;5956;51.428;6.682;2024-01-30T00:39:56;12.57;;;10.57;;
11797;SDS011;5956;51.428;6.682;2024-01-30T00:42:24;14.57;;;11.10;;
11797;SDS011;5956;51.428;6.682;2024-01-30T00:44:51;16.73;;;11.33;;
11797;SDS011;5956;51.428;6.682;2024-01-30T00:47:17;15.93;;;11.10;;
11797;SDS011;5956;51.428;6.682;2024-01-30T00:49:44;14.77;;;11.63;;
11797;SDS011;5956;51.428;6.682;2024-01-30T00:52:11;18.63;;;13.00;;
11797;SDS011;5956;51.428;6.682;2024-01-30T00:54:37;14.07;;;11.70;;
11797;SDS011;5956;51.428;6.682;2024-01-30T00:57:04;15.83;;;11.60;;
11797;SDS011;5956;51.428;6.682;2024-01-30T00:59:32;17.47;;;11.93;;
11797;SDS011;5956;51.428;6.682;2024-01-30T01:01:58;13.23;;;11.00;;
11797;SDS011;5956;51.428;6.682;2024-01-30T01:04:25;11.83;;;10.63;;
11797;SDS011;5956;51.428;6.682;2024-01-30T01:06:52;15.07;;;10.70;;
11797;SDS011;5956;51.428;6.682;2024-01-30T01:09:18;11.70;;;10.50;;
11797;SDS011;5956;51.428;6.682;2024-01-30T01:11:45;13.47;;;11.43;;
11797;SDS011;5956;51.428;6.682;2024-01-30T01:14:11;12.23;;;10.23;;
11797;SDS011;5956;51.428;6.682;2024-01-30T01:16:39;11.20;;;10.03;;
11797;SDS011;5956;51.428;6.682;2024-01-30T01:19:06;11.23;;;10.03;;
11797;SDS011;5956;51.428;6.682;2024-01-30T01:21:32;13.33;;;10.70;;
11797;SDS011;5956;51.428;6.682;2024-01-30T01:23:59;14.77;;;10.43;;
11797;SDS011;5956;51.428;6.682;2024-01-30T01:26:25;11.33;;;10.10;;
11797;SDS011;5956;51.428;6.682;2024-01-30T01:28:51;12.10;;;10.63;;
11797;SDS011;5956;51.428;6.682;2024-01-30T01:31:18;11.80;;;10.60;;
11797;SDS011;5956;51.428;6.682;2024-01-30T01:33:49;11.13;;;9.93;;
11797;SDS011;5956;51.428;6.682;2024-01-30T01:36:15;13.10;;;11.03;;
11797;SDS011;5956;51.428;6.682;2024-01-30T01:38:42;12.47;;;10.17;;
11797;SDS011;5956;51.428;6.682;2024-01-30T01:41:08;12.93;;;11.30;;
11797;SDS011;5956;51.428;6.682;2024-01-30T01:43:35;14.23;;;10.83;;
11797;SDS011;5956;51.428;6.682;2024-01-30T01:46:03;16.17;;;12.60;;
11797;SDS011;5956;51.428;6.682;2024-01-30T01:48:30;14.00;;;12.13;;
11797;SDS011;5956;51.428;6.682;2024-01-30T01:50:57;14.43;;;10.83;;
11797;SDS011;5956;51.428;6.682;2024-01-30T01:53:25;14.10;;;11.37;;
11797;SDS011;5956;51.428;6.682;2024-01-30T01:55:51;14.87;;;11.30;;
11797;SDS011;5956;51.428;6.682;2024-01-30T01:58:19;13.37;;;11.43;;
11797;SDS011;5956;51.428;6.682;2024-01-30T02:00:46;13.13;;;11.77;;
11797;SDS011;5956;51.428;6.682;2024-01-30T02:03:12;14.83;;;12.03;;
11797;SDS011;5956;51.428;6.682;2024-01-30T02:05:40;12.80;;;11.23;;
11797;SDS011;5956;51.428;6.682;2024-01-30T02:08:08;14.50;;;11.70;;
11797;SDS011;5956;51.428;6.682;2024-01-30T02:10:35;13.90;;;11.00;;
11797;SDS011;5956;51.428;6.682;2024-01-30T02:13:01;14.00;;;11.57;;
11797;SDS011;5956;51.428;6.682;2024-01-30T02:15:28;15.03;;;11.63;;
11797;SDS011;5956;51.428;6.682;2024-01-30T02:17:55;15.73;;;11.57;;
11797;SDS011;5956;51.428;6.682;2024-01-30T02:20:21;15.20;;;11.73;;
11797;SDS011;5956;51.428;6.682;2024-01-30T02:22:49;14.37;;;11.47;;
11797;SDS011;5956;51.428;6.682;2024-01-30T02:25:17;14.20;;;10.80;;
11797;SDS011;5956;51.428;6.682;2024-01-30T02:27:43;16.67;;;11.93;;
11797;SDS011;5956;51.428;6.682;2024-01-30T02:30:10;12.80;;;11.50;;
11797;SDS011;5956;51.428;6.682;2024-01-30T02:32:37;16.33;;;13.20;;
11797;SDS011;5956;51.428;6.682;2024-01-30T02:35:03;18.23;;;12.97;;
11797;SDS011;5956;51.428;6.682;2024-01-30T02:37:30;14.20;;;12.23;;
11797;SDS011;5956;51.428;6.682;2024-01-30T02:39:58;19.13;;;13.10;;
11797;SDS011;5956;51.428;6.682;2024-01-30T02:42:24;15.20;;;13.00;;
11797;SDS011;5956;51.428;6.682;2024-01-30T02:44:51;18.27;;;13.00;;
11797;SDS011;5956;51.428;6.682;2024-01-30T02:47:17;19.10;;;12.70;;
11797;SDS011;5956;51.428;6.682;2024-01-30T02:49:44;16.80;;;12.60;;
11797;SDS011;5956;51.428;6.682;2024-01-30T02:52:10;16.87;;;12.43;;
11797;SDS011;5956;51.428;6.682;2024-01-30T02:54:37;18.63;;;13.27;;
11797;SDS011;5956;51.428;6.682;2024-01-30T02:57:05;17.97;;;12.73;;
11797;SDS011;5956;51.428;6.682;2024-01-30T02:59:31;17.67;;;13.17;;
11797;SDS011;5956;51.428;6.682;2024-01-30T03:01:58;18.07;;;13.20;;
11797;SDS011;5956;51.428;6.682;2024-01-30T03:04:25;16.40;;;14.10;;
11797;SDS011;5956;51.428;6.682;2024-01-30T03:06:51;18.53;;;14.17;;
11797;SDS011;5956;51.428;6.682;2024-01-30T03:09:18;20.53;;;13.67;;
11797;SDS011;5956;51.428;6.682;2024-01-30T03:11:44;18.13;;;12.73;;
11797;SDS011;5956;51.428;6.682;2024-01-30T03:14:12;16.83;;;12.57;;
11797;SDS011;5956;51.428;6.682;2024-01-30T03:16:38;13.03;;;11.43;;
11797;SDS011;5956;51.428;6.682;2024-01-30T03:19:05;16.67;;;12.47;;
11797;SDS011;5956;51.428;6.682;2024-01-30T03:21:32;14.50;;;11.60;;
11797;SDS011;5956;51.428;6.682;2024-01-30T03:23:59;12.83;;;11.43;;
11797;SDS011;5956;51.428;6.682;2024-01-30T03:26:25;14.30;;;11.47;;
11797;SDS011;5956;51.428;6.682;2024-01-30T03:28:52;13.47;;;11.13;;
11797;SDS011;5956;51.428;6.682;2024-01-30T03:31:20;12.93;;;11.10;;
11797;SDS011;5956;51.428;6.682;2024-01-30T03:33:46;12.83;;;10.63;;
11797;SDS011;5956;51.428;6.682;2024-01-30T03:36:13;16.67;;;11.10;;
11797;SDS011;5956;51.428;6.682;2024-01-30T03:38:39;13.83;;;10.83;;
11797;SDS011;5956;51.428;6.682;2024-01-30T03:41:07;10.80;;;9.63;;
11797;SDS011;5956;51.428;6.682;2024-01-30T03:43:33;13.07;;;10.27;;
11797;SDS011;5956;51.428;6.682;2024-01-30T03:46:00;12.63;;;10.20;;
11797;SDS011;5956;51.428;6.682;2024-01-30T03:48:28;13.40;;;10.47;;
11797;SDS011;5956;51.428;6.682;2024-01-30T03:50:55;13.77;;;10.27;;
11797;SDS011;5956;51.428;6.682;2024-01-30T03:53:21;12.87;;;10.83;;
11797;SDS011;5956;51.428;6.682;2024-01-30T03:55:48;15.00;;;10.20;;
11797;SDS011;5956;51.428;6.682;2024-01-30T03:58:14;10.90;;;9.80;;
11797;SDS011;5956;51.428;6.682;2024-01-30T04:00:41;13.40;;;10.23;;
11797;SDS011;5956;51.428;6.682;2024-01-30T04:03:07;12.60;;;9.87;;
11797;SDS011;5956;51.428;6.682;2024-01-30T04:05:35;15.07;;;10.00;;
11797;SDS011;5956;51.428;6.682;2024-01-30T04:08:01;12.00;;;10.23;;
11797;SDS011;5956;51.428;6.682;2024-01-30T04:10:28;13.10;;;10.30;;
11797;SDS011;5956;51.428;6.682;2024-01-30T04:12:54;11.23;;;10.07;;
11797;SDS011;5956;51.428;6.682;2024-01-30T04:15:21;12.43;;;10.37;;
11797;SDS011;5956;51.428;6.682;2024-01-30T04:17:47;11.73;;;10.27;;
11797;SDS011;5956;51.428;6.682;2024-01-30T04:20:14;11.53;;;10.43;;
11797;SDS011;5956;51.428;6.682;2024-01-30T04:22:43;12.90;;;9.90;;
11797;SDS011;5956;51.428;6.682;2024-01-30T04:25:09;12.37;;;10.57;;
11797;SDS011;5956;51.428;6.682;2024-01-30T04:27:36;12.50;;;10.07;;
11797;SDS011;5956;51.428;6.682;2024-01-30T04:30:02;10.10;;;9.10;;
11797;SDS011;5956;51.428;6.682;2024-01-30T04:32:29;11.10;;;9.57;;
11797;SDS011;5956;51.428;6.682;2024-01-30T04:34:55;11.37;;;9.40;;
11797;SDS011;5956;51.428;6.682;2024-01-30T04:37:22;12.17;;;10.40;;
11797;SDS011;5956;51.428;6.682;2024-01-30T04:39:50;11.37;;;9.87;;
11797;SDS011;5956;51.428;6.682;2024-01-30T04:42:17;14.17;;;9.67;;
11797;SDS011;5956;51.428;6.682;2024-01-30T04:44:43;9.87;;;8.87;;
11797;SDS011;5956;51.428;6.682;2024-01-30T04:47:10;11.70;;;9.60;;
11797;SDS011;5956;51.428;6.682;2024-01-30T04:49:37;12.03;;;9.47;;
11797;SDS011;5956;51.428;6.682;2024-01-30T04:52:04;11.03;;;9.30;;
11797;SDS011;5956;51.428;6.682;2024-01-30T04:54:31;11.13;;;9.90;;
11797;SDS011;5956;51.428;6.682;2024-01-30T04:56:59;10.13;;;9.07;;
11797;SDS011;5956;51.428;6.682;2024-01-30T04:59:33;11.23;;;9.13;;
11797;SDS011;5956;51.428;6.682;2024-01-30T05:02:00;10.23;;;8.47;;
11797;SDS011;5956;51.428;6.682;2024-01-30T05:04:26;12.10;;;8.47;;
11797;SDS011;5956;51.428;6.682;2024-01-30T05:06:52;10.93;;;8.93;;
11797;SDS011;5956;51.428;6.682;2024-01-30T05:09:19;9.63;;;8.63;;
11797;SDS011;5956;51.428;6.682;2024-01-30T05:11:46;10.43;;;9.33;;
11797;SDS011;5956;51.428;6.682;2024-01-30T05:14:14;10.90;;;9.23;;
11797;SDS011;5956;51.428;6.682;2024-01-30T05:16:41;10.27;;;8.57;;
11797;SDS011;5956;51.428;6.682;2024-01-30T05:19:11;11.20;;;8.87;;
11797;SDS011;5956;51.428;6.682;2024-01-30T05:21:38;9.47;;;8.63;;
11797;SDS011;5956;51.428;6.682;2024-01-30T05:24:04;9.40;;;8.60;;
11797;SDS011;5956;51.428;6.682;2024-01-30T05:26:31;10.30;;;8.37;;
11797;SDS011;5956;51.428;6.682;2024-01-30T05:28:57;13.63;;;9.67;;
11797;SDS011;5956;51.428;6.682;2024-01-30T05:31:25;9.77;;;8.67;;
11797;SDS011;5956;51.428;6.682;2024-01-30T05:33:52;10.57;;;9.03;;
11797;SDS011;5956;51.428;6.682;2024-01-30T05:36:18;13.73;;;9.53;;
11797;SDS011;5956;51.428;6.682;2024-01-30T05:38:45;10.03;;;9.03;;
11797;SDS011;5956;51.428;6.682;2024-01-30T05:41:12;16.27;;;11.87;;
11797;SDS011;5956;51.428;6.682;2024-01-30T05:43:39;13.03;;;11.27;;
11797;SDS011;5956;51.428;6.682;2024-01-30T05:46:06;10.20;;;9.20;;
11797;SDS011;5956;51.428;6.682;2024-01-30T05:48:34;11.27;;;9.47;;
11797;SDS011;5956;51.428;6.682;2024-01-30T05:51:01;10.43;;;9.40;;
11797;SDS011;5956;51.428;6.682;2024-01-30T05:53:29;18.27;;;14.17;;
11797;SDS011;5956;51.428;6.682;2024-01-30T05:55:55;15.87;;;14.20;;
11797;SDS011;5956;51.428;6.682;2024-01-30T05:58:22;12.37;;;10.57;;
11797;SDS011;5956;51.428;6.682;2024-01-30T06:00:48;10.83;;;9.63;;
11797;SDS011;5956;51.428;6.682;2024-01-30T06:03:14;17.20;;;10.43;;
11797;SDS011;5956;51.428;6.682;2024-01-30T06:05:43;12.37;;;10.00;;
11797;SDS011;5956;51.428;6.682;2024-01-30T06:08:09;11.47;;;10.17;;
11797;SDS011;5956;51.428;6.682;2024-01-30T06:10:36;18.40;;;15.83;;
11797;SDS011;5956;51.428;6.682;2024-01-30T06:13:02;15.30;;;12.00;;
11797;SDS011;5956;51.428;6.682;2024-01-30T06:15:29;12.97;;;10.73;;
11797;SDS011;5956;51.428;6.682;2024-01-30T06:17:57;12.77;;;11.00;;
11797;SDS011;5956;51.428;6.682;2024-01-30T06:20:24;16.93;;;11.27;;
11797;SDS011;5956;51.428;6.682;2024-01-30T06:22:52;14.10;;;11.67;;
11797;SDS011;5956;51.428;6.682;2024-01-30T06:25:18;14.33;;;11.33;;
11797;SDS011;5956;51.428;6.682;2024-01-30T06:27:45;15.33;;;11.13;;
11797;SDS011;5956;51.428;6.682;2024-01-30T06:30:12;12.30;;;10.50;;
11797;SDS011;5956;51.428;6.682;2024-01-30T06:32:38;14.47;;;10.73;;
11797;SDS011;5956;51.428;6.682;2024-01-30T06:35:05;11.80;;;10.33;;
11797;SDS011;5956;51.428;6.682;2024-01-30T06:37:32;14.50;;;10.47;;
11797;SDS011;5956;51.428;6.682;2024-01-30T06:40:00;11.27;;;9.23;;
11797;SDS011;5956;51.428;6.682;2024-01-30T06:42:26;11.53;;;10.07;;
11797;SDS011;5956;51.428;6.682;2024-01-30T06:44:53;15.80;;;12.57;;
11797;SDS011;5956;51.428;6.682;2024-01-30T06:47:19;16.17;;;11.83;;
11797;SDS011;5956;51.428;6.682;2024-01-30T06:49:46;15.17;;;12.03;;
11797;SDS011;5956;51.428;6.682;2024-01-30T06:52:12;15.20;;;12.27;;
11797;SDS011;5956;51.428;6.682;2024-01-30T06:54:39;14.70;;;12.67;;
11797;SDS011;5956;51.428;6.682;2024-01-30T06:57:07;14.67;;;11.30;;
11797;SDS011;5956;51.428;6.682;2024-01-30T06:59:36;16.97;;;10.93;;
11797;SDS011;5956;51.428;6.682;2024-01-30T07:02:06;11.03;;;9.80;;
11797;SDS011;5956;51.428;6.682;2024-01-30T07:04:33;11.70;;;10.27;;
11797;SDS011;5956;51.428;6.682;2024-01-30T07:07:02;10.27;;;8.97;;
11797;SDS011;5956;51.428;6.682;2024-01-30T07:09:30;10.90;;;9.37;;
11797;SDS011;5956;51.428;6.682;2024-01-30T07:11:57;12.07;;;10.60;;
11797;SDS011;5956;51.428;6.682;2024-01-30T07:14:25;13.67;;;9.43;;
11797;SDS011;5956;51.428;6.682;2024-01-30T07:16:52;14.20;;;9.33;;
11797;SDS011;5956;51.428;6.682;2024-01-30T07:19:18;10.00;;;8.87;;
11797;SDS011;5956;51.428;6.682;2024-01-30T07:21:44;10.33;;;9.20;;
11797;SDS011;5956;51.428;6.682;2024-01-30T07:24:11;11.57;;;9.97;;
11797;SDS011;5956;51.428;6.682;2024-01-30T07:26:38;15.13;;;13.53;;
11797;SDS011;5956;51.428;6.682;2024-01-30T07:29:04;14.80;;;11.50;;
11797;SDS011;5956;51.428;6.682;2024-01-30T07:31:32;14.77;;;10.17;;
11797;SDS011;5956;51.428;6.682;2024-01-30T07:33:59;13.00;;;10.60;;
11797;SDS011;5956;51.428;6.682;2024-01-30T07:36:26;13.30;;;10.17;;
11797;SDS011;5956;51.428;6.682;2024-01-30T07:38:58;10.33;;;9.20;;
11797;SDS011;5956;51.428;6.682;2024-01-30T07:41:30;10.33;;;9.20;;
11797;SDS011;5956;51.428;6.682;2024-01-30T07:43:58;9.57;;;8.67;;
11797;SDS011;5956;51.428;6.682;2024-01-30T07:46:28;14.00;;;9.17;;
11797;SDS011;5956;51.428;6.682;2024-01-30T07:48:56;10.33;;;8.50;;
11797;SDS011;5956;51.428;6.682;2024-01-30T07:51:24;12.37;;;9.50;;
11797;SDS011;5956;51.428;6.682;2024-01-30T07:53:57;9.97;;;8.63;;
11797;SDS011;5956;51.428;6.682;2024-01-30T07:56:26;12.43;;;9.93;;
11797;SDS011;5956;51.428;6.682;2024-01-30T07:58:53;12.93;;;9.30;;
11797;SDS011;5956;51.428;6.682;2024-01-30T08:01:19;10.47;;;9.13;;
11797;SDS011;5956;51.428;6.682;2024-01-30T08:03:46;10.80;;;8.73;;
11797;SDS011;5956;51.428;6.682;2024-01-30T08:06:14;10.43;;;9.33;;
11797;SDS011;5956;51.428;6.682;2024-01-30T08:08:41;12.70;;;9.50;;
11797;SDS011;5956;51.428;6.682;2024-01-30T08:11:08;10.23;;;8.70;;
11797;SDS011;5956;51.428;6.682;2024-01-30T08:13:36;11.70;;;9.33;;
11797;SDS011;5956;51.428;6.682;2024-01-30T08:16:04;12.77;;;9.83;;
11797;SDS011;5956;51.428;6.682;2024-01-30T08:18:36;10.93;;;9.43;;
11797;SDS011;5956;51.428;6.682;2024-01-30T08:21:08;11.93;;;9.03;;
11797;SDS011;5956;51.428;6.682;2024-01-30T08:23:37;12.90;;;9.73;;
11797;SDS011;5956;51.428;6.682;2024-01-30T08:26:04;10.43;;;9.13;;
11797;SDS011;5956;51.428;6.682;2024-01-30T08:28:31;10.53;;;9.43;;
11797;SDS011;5956;51.428;6.682;2024-01-30T08:30:57;11.67;;;9.63;;
11797;SDS011;5956;51.428;6.682;2024-01-30T08:33:24;10.17;;;9.23;;
11797;SDS011;5956;51.428;6.682;2024-01-30T08:35:51;11.10;;;9.93;;
11797;SDS011;5956;51.428;6.682;2024-01-30T08:38:18;12.60;;;9.87;;
11797;SDS011;5956;51.428;6.682;2024-01-30T08:40:46;10.63;;;9.40;;
11797;SDS011;5956;51.428;6.682;2024-01-30T08:43:12;11.47;;;9.03;;
11797;SDS011;5956;51.428;6.682;2024-01-30T08:45:38;11.23;;;9.23;;
11797;SDS011;5956;51.428;6.682;2024-01-30T08:48:05;11.27;;;9.27;;
11797;SDS011;5956;51.428;6.682;2024-01-30T08:50:33;17.30;;;12.37;;
11797;SDS011;5956;51.428;6.682;2024-01-30T08:52:59;16.50;;;13.63;;
11797;SDS011;5956;51.428;6.682;2024-01-30T08:55:26;12.67;;;10.03;;
11797;SDS011;5956;51.428;6.682;2024-01-30T08:57:54;10.90;;;9.20;;
11797;SDS011;5956;51.428;6.682;2024-01-30T09:00:20;12.27;;;9.50;;
11797;SDS011;5956;51.428;6.682;2024-01-30T09:02:46;11.50;;;9.10;;
11797;SDS011;5956;51.428;6.682;2024-01-30T09:05:13;9.87;;;8.87;;
11797;SDS011;5956;51.428;6.682;2024-01-30T09:07:40;11.27;;;10.07;;
11797;SDS011;5956;51.428;6.682;2024-01-30T09:10:06;12.10;;;9.47;;
11797;SDS011;5956;51.428;6.682;2024-01-30T09:12:33;15.97;;;13.40;;
11797;SDS011;5956;51.428;6.682;2024-01-30T09:15:01;12.70;;;9.63;;
11797;SDS011;5956;51.428;6.682;2024-01-30T09:17:27;13.50;;;9.93;;
11797;SDS011;5956;51.428;6.682;2024-01-30T09:19:54;12.17;;;9.93;;
11797;SDS011;5956;51.428;6.682;2024-01-30T09:22:20;11.30;;;9.70;;
11797;SDS011;5956;51.428;6.682;2024-01-30T09:24:47;13.50;;;9.20;;
11797;SDS011;5956;51.428;6.682;2024-01-30T09:27:13;10.47;;;9.47;;
11797;SDS011;5956;51.428;6.682;2024-01-30T09:29:40;10.27;;;9.10;;
11797;SDS011;5956;51.428;6.682;2024-01-30T09:32:08;11.67;;;10.40;;
11797;SDS011;5956;51.428;6.682;2024-01-30T09:34:35;10.90;;;9.73;;
11797;SDS011;5956;51.428;6.682;2024-01-30T09:37:01;11.27;;;9.87;;
11797;SDS011;5956;51.428;6.682;2024-01-30T09:39:27;11.53;;;10.40;;
11797;SDS011;5956;51.428;6.682;2024-01-30T09:41:55;12.50;;;9.83;;
11797;SDS011;5956;51.428;6.682;2024-01-30T09:44:22;10.90;;;9.87;;
11797;SDS011;5956;51.428;6.682;2024-01-30T09:46:49;12.47;;;10.17;;
11797;SDS011;5956;51.428;6.682;2024-01-30T09:49:17;11.37;;;10.20;;
11797;SDS011;5956;51.428;6.682;2024-01-30T09:51:44;11.93;;;10.33;;
11797;SDS011;5956;51.428;6.682;2024-01-30T09:54:12;11.80;;;10.03;;
11797;SDS011;5956;51.428;6.682;2024-01-30T09:56:39;11.97;;;9.80;;
11797;SDS011;5956;51.428;6.682;2024-01-30T09:59:06;11.07;;;8.93;;
11797;SDS011;5956;51.428;6.682;2024-01-30T10:01:34;11.37;;;9.40;;
11797;SDS011;5956;51.428;6.682;2024-01-30T10:04:00;10.77;;;9.67;;
11797;SDS011;5956;51.428;6.682;2024-01-30T10:06:28;11.20;;;10.10;;
11797;SDS011;5956;51.428;6.682;2024-01-30T10:08:55;13.67;;;9.43;;
11797;SDS011;5956;51.428;6.682;2024-01-30T10:11:21;11.73;;;10.13;;
11797;SDS011;5956;51.428;6.682;2024-01-30T10:13:48;12.03;;;10.10;;
11797;SDS011;5956;51.428;6.682;2024-01-30T10:16:15;10.90;;;8.90;;
11797;SDS011;5956;51.428;6.682;2024-01-30T10:18:42;12.73;;;9.50;;
11797;SDS011;5956;51.428;6.682;2024-01-30T10:21:08;15.27;;;9.77;;
11797;SDS011;5956;51.428;6.682;2024-01-30T10:23:36;10.80;;;9.63;;
11797;SDS011;5956;51.428;6.682;2024-01-30T10:26:03;13.93;;;10.13;;
11797;SDS011;5956;51.428;6.682;2024-01-30T10:28:30;11.20;;;10.10;;
11797;SDS011;5956;51.428;6.682;2024-01-30T10:30:59;13.00;;;10.63;;
11797;SDS011;5956;51.428;6.682;2024-01-30T10:33:26;16.77;;;10.83;;
11797;SDS011;5956;51.428;6.682;2024-01-30T10:35:54;13.83;;;9.93;;
11797;SDS011;5956;51.428;6.682;2024-01-30T10:38:21;12.60;;;10.50;;
11797;SDS011;5956;51.428;6.682;2024-01-30T10:40:51;11.47;;;10.27;;
11797;SDS011;5956;51.428;6.682;2024-01-30T10:43:19;12.30;;;11.10;;
11797;SDS011;5956;51.428;6.682;2024-01-30T10:45:48;14.37;;;10.93;;
11797;SDS011;5956;51.428;6.682;2024-01-30T10:48:24;13.17;;;10.90;;
11797;SDS011;5956;51.428;6.682;2024-01-30T10:50:52;16.90;;;11.90;;
11797;SDS011;5956;51.428;6.682;2024-01-30T10:53:21;13.73;;;10.77;;
11797;SDS011;5956;51.428;6.682;2024-01-30T10:55:48;14.77;;;11.70;;
11797;SDS011;5956;51.428;6.682;2024-01-30T10:58:17;15.57;;;11.23;;
11797;SDS011;5956;51.428;6.682;2024-01-30T11:00:43;14.67;;;11.13;;
11797;SDS011;5956;51.428;6.682;2024-01-30T11:03:10;14.30;;;10.90;;
11797;SDS011;5956;51.428;6.682;2024-01-30T11:05:41;11.57;;;10.37;;
11797;SDS011;5956;51.428;6.682;2024-01-30T11:08:11;16.07;;;10.40;;
11797;SDS011;5956;51.428;6.682;2024-01-30T11:10:44;12.83;;;11.13;;
11797;SDS011;5956;51.428;6.682;2024-01-30T11:13:12;13.43;;;11.10;;
11797;SDS011;5956;51.428;6.682;2024-01-30T11:15:39;11.93;;;10.50;;
11797;SDS011;5956;51.428;6.682;2024-01-30T11:18:06;12.57;;;11.00;;
11797;SDS011;5956;51.428;6.682;2024-01-30T11:20:32;13.53;;;10.27;;
11797;SDS011;5956;51.428;6.682;2024-01-30T11:23:02;16.27;;;11.03;;
11797;SDS011;5956;51.428;6.682;2024-01-30T11:25:31;14.27;;;11.23;;
11797;SDS011;5956;51.428;6.682;2024-01-30T11:27:58;12.40;;;10.23;;
11797;SDS011;5956;51.428;6.682;2024-01-30T11:30:25;12.43;;;10.97;;
11797;SDS011;5956;51.428;6.682;2024-01-30T11:32:58;12.10;;;10.63;;
11797;SDS011;5956;51.428;6.682;2024-01-30T11:35:25;12.50;;;9.47;;
11797;SDS011;5956;51.428;6.682;2024-01-30T11:37:52;16.27;;;10.73;;
11797;SDS011;5956;51.428;6.682;2024-01-30T11:40:20;12.10;;;9.43;;
11797;SDS011;5956;51.428;6.682;2024-01-30T11:42:47;10.83;;;9.73;;
11797;SDS011;5956;51.428;6.682;2024-01-30T11:45:14;12.87;;;9.53;;
11797;SDS011;5956;51.428;6.682;2024-01-30T11:47:41;12.50;;;9.13;;
11797;SDS011;5956;51.428;6.682;2024-01-30T11:50:08;10.93;;;9.07;;
11797;SDS011;5956;51.428;6.682;2024-01-30T11:52:35;10.17;;;8.70;;
11797;SDS011;5956;51.428;6.682;2024-01-30T11:55:02;13.97;;;12.47;;
11797;SDS011;5956;51.428;6.682;2024-01-30T11:57:30;12.17;;;10.63;;
11797;SDS011;5956;51.428;6.682;2024-01-30T11:59:57;11.20;;;9.93;;
11797;SDS011;5956;51.428;6.682;2024-01-30T12:02:24;14.87;;;9.77;;
11797;SDS011;5956;51.428;6.682;2024-01-30T12:04:51;12.87;;;9.73;;
11797;SDS011;5956;51.428;6.682;2024-01-30T12:07:18;13.53;;;10.17;;
11797;SDS011;5956;51.428;6.682;2024-01-30T12:09:51;12.97;;;8.97;;
11797;SDS011;5956;51.428;6.682;2024-01-30T12:12:18;13.53;;;9.37;;
11797;SDS011;5956;51.428;6.682;2024-01-30T12:14:46;10.30;;;9.20;;
11797;SDS011;5956;51.428;6.682;2024-01-30T12:17:22;11.90;;;9.30;;
11797;SDS011;5956;51.428;6.682;2024-01-30T12:19:48;12.27;;;8.97;;
11797;SDS011;5956;51.428;6.682;2024-01-30T12:22:15;13.27;;;8.93;;
11797;SDS011;5956;51.428;6.682;2024-01-30T12:24:41;10.50;;;8.83;;
11797;SDS011;5956;51.428;6.682;2024-01-30T12:27:08;9.67;;;8.60;;
11797;SDS011;5956;51.428;6.682;2024-01-30T12:29:34;12.43;;;9.83;;
11797;SDS011;5956;51.428;6.682;2024-01-30T12:32:03;11.23;;;8.40;;
11797;SDS011;5956;51.428;6.682;2024-01-30T12:34:30;10.37;;;8.00;;
11797;SDS011;5956;51.428;6.682;2024-01-30T12:36:57;8.93;;;8.03;;
11797;SDS011;5956;51.428;6.682;2024-01-30T12:39:23;11.03;;;8.33;;
11797;SDS011;5956;51.428;6.682;2024-01-30T12:41:51;10.50;;;8.20;;
11797;SDS011;5956;51.428;6.682;2024-01-30T12:44:17;8.53;;;6.30;;
11797;SDS011;5956;51.428;6.682;2024-01-30T12:46:44;10.47;;;7.63;;
11797;SDS011;5956;51.428;6.682;2024-01-30T12:49:12;11.67;;;8.23;;
11797;SDS011;5956;51.428;6.682;2024-01-30T12:51:38;11.73;;;8.60;;
11797;SDS011;5956;51.428;6.682;2024-01-30T12:54:05;12.10;;;8.00;;
11797;SDS011;5956;51.428;6.682;2024-01-30T12:56:32;8.50;;;7.47;;
11797;SDS011;5956;51.428;6.682;2024-01-30T12:58:59;11.90;;;8.20;;
11797;SDS011;5956;51.428;6.682;2024-01-30T13:01:26;12.33;;;8.37;;
11797;SDS011;5956;51.428;6.682;2024-01-30T13:03:52;18.90;;;12.63;;
11797;SDS011;5956;51.428;6.682;2024-01-30T13:06:21;11.53;;;8.33;;
11797;SDS011;5956;51.428;6.682;2024-01-30T13:08:48;13.87;;;7.87;;
11797;SDS011;5956;51.428;6.682;2024-01-30T13:11:14;10.40;;;7.80;;
11797;SDS011;5956;51.428;6.682;2024-01-30T13:13:41;10.13;;;8.20;;
11797;SDS011;5956;51.428;6.682;2024-01-30T13:16:08;14.10;;;8.47;;
11797;SDS011;5956;51.428;6.682;2024-01-30T13:18:34;11.27;;;8.27;;
11797;SDS011;5956;51.428;6.682;2024-01-30T13:21:00;11.47;;;8.77;;
11797;SDS011;5956;51.428;6.682;2024-01-30T13:23:29;12.60;;;8.30;;
11797;SDS011;5956;51.428;6.682;2024-01-30T13:25:55;11.67;;;8.07;;
11797;SDS011;5956;51.428;6.682;2024-01-30T13:28:23;11.37;;;7.70;;
11797;SDS011;5956;51.428;6.682;2024-01-30T13:30:50;9.63;;;8.33;;
11797;SDS011;5956;51.428;6.682;2024-01-30T13:33:17;11.73;;;7.87;;
11797;SDS011;5956;51.428;6.682;2024-01-30T13:35:43;10.57;;;8.20;;
11797;SDS011;5956;51.428;6.682;2024-01-30T13:38:10;11.27;;;7.30;;
11797;SDS011;5956;51.428;6.682;2024-01-30T13:40:38;8.57;;;7.60;;
11797;SDS011;5956;51.428;6.682;2024-01-30T13:43:04;8.73;;;6.93;;
11797;SDS011;5956;51.428;6.682;2024-01-30T13:45:31;9.17;;;7.17;;
11797;SDS011;5956;51.428;6.682;2024-01-30T13:47:57;9.77;;;7.00;;
11797;SDS011;5956;51.428;6.682;2024-01-30T13:50:24;11.80;;;7.10;;
11797;SDS011;5956;51.428;6.682;2024-01-30T13:52:50;10.30;;;8.00;;
11797;SDS011;5956;51.428;6.682;2024-01-30T13:55:17;7.60;;;6.90;;
11797;SDS011;5956;51.428;6.682;2024-01-30T13:57:45;9.97;;;7.47;;
11797;SDS011;5956;51.428;6.682;2024-01-30T14:00:11;11.10;;;7.57;;
11797;SDS011;5956;51.428;6.682;2024-01-30T14:02:41;12.43;;;8.20;;
11797;SDS011;5956;51.428;6.682;2024-01-30T14:05:08;11.10;;;7.87;;
11797;SDS011;5956;51.428;6.682;2024-01-30T14:07:35;7.70;;;6.80;;
11797;SDS011;5956;51.428;6.682;2024-01-30T14:10:02;8.30;;;7.30;;
11797;SDS011;5956;51.428;6.682;2024-01-30T14:12:29;7.57;;;6.60;;
11797;SDS011;5956;51.428;6.682;2024-01-30T14:14:58;8.03;;;7.23;;
11797;SDS011;5956;51.428;6.682;2024-01-30T14:17:24;10.27;;;8.03;;
11797;SDS011;5956;51.428;6.682;2024-01-30T14:19:51;9.57;;;7.47;;
11797;SDS011;5956;51.428;6.682;2024-01-30T14:22:17;8.80;;;7.37;;
11797;SDS011;5956;51.428;6.682;2024-01-30T14:24:44;8.70;;;6.67;;
11797;SDS011;5956;51.428;6.682;2024-01-30T14:27:11;8.70;;;6.47;;
11797;SDS011;5956;51.428;6.682;2024-01-30T14:29:37;7.50;;;6.53;;
11797;SDS011;5956;51.428;6.682;2024-01-30T14:32:06;10.27;;;7.70;;
11797;SDS011;5956;51.428;6.682;2024-01-30T14:34:32;8.53;;;7.13;;
11797;SDS011;5956;51.428;6.682;2024-01-30T14:36:59;9.47;;;7.00;;
11797;SDS011;5956;51.428;6.682;2024-01-30T14:39:25;7.83;;;6.93;;
11797;SDS011;5956;51.428;6.682;2024-01-30T14:41:52;7.67;;;6.17;;